Time;durP1;ratioP1;P1;durP2;ratioP2;P2;SDS_P1;SDS_P2;PMS_P1;PMS_P2;Temp;Humidity;BMP_temperature;BMP_pressure;BME280_temperature;BME280_humidity;BME280_pressure;Samples;Min_cycle;Max_cycle;Signal;HPM_P1;HPM_P2
2024/03/13 00:02:00;;;;;;;15.33;8.03;;;8.30;99.90;;;;;;4193455;28;21175;-81
2024/03/13 00:04:04;;;;;;;14.90;8.20;;;8.40;99.90;;;;;;4195568;28;20209;-81
2024/03/13 00:06:07;;;;;;;16.30;8.37;;;8.30;99.90;;;;;;4194687;28;20649;-81
2024/03/13 00:08:09;;;;;;;15.30;8.30;;;8.30;99.90;;;;;;4197984;28;20278;-81
2024/03/13 00:10:11;;;;;;;15.13;8.00;;;8.50;99.90;;;;;;4199144;28;20304;-80
2024/03/13 00:12:14;;;;;;;13.63;7.73;;;8.30;99.90;;;;;;4196061;28;20205;-79
2024/03/13 00:14:16;;;;;;;14.87;8.00;;;8.30;99.90;;;;;;4194605;28;20292;-79
2024/03/13 00:16:19;;;;;;;14.37;8.10;;;8.20;99.90;;;;;;4194098;28;20639;-79
2024/03/13 00:18:22;;;;;;;13.83;7.73;;;8.20;99.90;;;;;;4199726;28;20252;-80
2024/03/13 00:20:24;;;;;;;14.83;8.27;;;8.20;99.90;;;;;;4200804;28;20339;-79
2024/03/13 00:22:27;;;;;;;13.30;7.63;;;8.30;99.90;;;;;;4202660;28;20700;-79
2024/03/13 00:24:28;;;;;;;12.43;7.10;;;8.30;99.90;;;;;;4192315;28;20206;-80
2024/03/13 00:26:30;;;;;;;14.97;8.07;;;8.20;99.90;;;;;;4197403;28;20258;-79
2024/03/13 00:28:32;;;;;;;16.97;9.13;;;8.30;99.90;;;;;;4213214;28;20224;-79
2024/03/13 00:30:35;;;;;;;17.53;9.80;;;8.30;99.90;;;;;;4201589;28;20207;-79
2024/03/13 00:32:37;;;;;;;18.43;9.63;;;8.30;99.90;;;;;;4197484;28;20240;-79
2024/03/13 00:34:43;;;;;;;15.83;9.17;;;8.30;99.90;;;;;;4193464;28;20258;-79
2024/03/13 00:36:45;;;;;;;17.53;9.67;;;8.20;99.90;;;;;;4195628;28;20698;-79
2024/03/13 00:38:47;;;;;;;16.90;8.93;;;8.20;99.90;;;;;;4195804;28;20761;-79
2024/03/13 00:40:49;;;;;;;17.53;9.43;;;8.20;99.90;;;;;;4192857;28;20213;-78
2024/03/13 00:42:51;;;;;;;17.27;8.73;;;8.20;99.90;;;;;;4194224;28;20200;-79
2024/03/13 00:44:53;;;;;;;16.87;9.00;;;8.10;99.90;;;;;;4189717;28;20372;-79
2024/03/13 00:46:55;;;;;;;17.17;8.87;;;8.00;99.90;;;;;;4210918;28;20220;-79
2024/03/13 00:48:57;;;;;;;18.07;8.90;;;8.00;99.90;;;;;;4192635;28;20205;-79
2024/03/13 00:51:01;;;;;;;17.40;9.50;;;8.00;99.90;;;;;;4192390;28;20246;-79
2024/03/13 00:53:03;;;;;;;16.37;9.00;;;8.00;99.90;;;;;;4194248;28;20195;-79
2024/03/13 00:55:10;;;;;;;18.30;9.80;;;7.90;99.90;;;;;;4190991;28;20880;-79
2024/03/13 00:57:11;;;;;;;14.37;8.50;;;7.90;99.90;;;;;;4210295;28;20269;-79
2024/03/13 00:59:13;;;;;;;14.63;8.73;;;7.80;99.90;;;;;;4196364;28;20212;-79
2024/03/13 01:01:17;;;;;;;18.47;9.00;;;7.80;99.90;;;;;;4193746;28;20193;-79
2024/03/13 01:03:22;;;;;;;16.60;9.03;;;7.80;99.90;;;;;;4186827;28;20211;-78
2024/03/13 01:05:24;;;;;;;15.30;8.30;;;7.80;99.90;;;;;;4189358;28;20268;-78
2024/03/13 01:07:27;;;;;;;16.50;8.80;;;7.70;99.90;;;;;;4193205;28;20278;-79
2024/03/13 01:09:28;;;;;;;15.00;9.13;;;7.70;99.90;;;;;;4196222;28;20261;-79
2024/03/13 01:11:30;;;;;;;16.27;8.87;;;7.70;99.90;;;;;;4198512;28;20259;-81
2024/03/13 01:13:32;;;;;;;16.37;8.93;;;7.60;99.90;;;;;;4198435;28;20238;-81
2024/03/13 01:15:34;;;;;;;14.93;8.33;;;7.50;99.90;;;;;;4197377;28;20208;-81
2024/03/13 01:17:40;;;;;;;16.10;9.00;;;7.50;99.90;;;;;;4198664;28;20229;-81
2024/03/13 01:19:41;;;;;;;18.57;9.93;;;7.50;99.90;;;;;;4198758;28;20214;-80
2024/03/13 01:21:43;;;;;;;19.03;10.27;;;7.60;99.90;;;;;;4204448;28;20971;-81
2024/03/13 01:23:46;;;;;;;18.37;10.03;;;7.50;99.90;;;;;;4197072;28;20207;-80
2024/03/13 01:25:48;;;;;;;18.87;9.50;;;7.50;99.90;;;;;;4195369;28;20210;-80
2024/03/13 01:27:50;;;;;;;18.40;9.53;;;7.50;99.90;;;;;;4191804;28;20258;-80
2024/03/13 01:29:54;;;;;;;17.43;9.83;;;7.50;99.90;;;;;;4195085;28;20213;-80
2024/03/13 01:31:57;;;;;;;16.80;9.47;;;7.60;99.90;;;;;;4197082;28;20295;-80
2024/03/13 01:33:58;;;;;;;18.47;9.90;;;7.50;99.90;;;;;;4192839;28;20226;-80
2024/03/13 01:36:00;;;;;;;18.23;9.67;;;7.50;99.90;;;;;;4193611;28;20227;-80
2024/03/13 01:38:02;;;;;;;16.67;8.73;;;7.50;99.90;;;;;;4196421;28;20230;-81
2024/03/13 01:40:08;;;;;;;15.10;8.20;;;7.50;99.90;;;;;;4195161;28;20207;-81
2024/03/13 01:56:24;;;;;;;16.27;8.93;;;7.40;99.90;;;;;;4197044;28;20239;-81
2024/03/13 01:58:39;;;;;;;17.37;8.83;;;7.40;99.90;;;;;;4199174;28;20204;-80
2024/03/13 02:03:01;;;;;;;20.80;9.47;;;7.40;99.90;;;;;;4193303;28;20218;-81
2024/03/13 02:05:04;;;;;;;18.23;9.03;;;7.40;99.90;;;;;;4194835;28;21253;-79
2024/03/13 02:07:06;;;;;;;18.67;9.53;;;7.40;99.90;;;;;;4194028;28;20258;-80
2024/03/13 02:09:09;;;;;;;18.63;9.00;;;7.40;99.90;;;;;;4196260;28;20188;-81
2024/03/13 02:11:12;;;;;;;20.40;9.73;;;7.40;99.90;;;;;;4194293;28;20212;-80
2024/03/13 02:13:18;;;;;;;18.43;9.83;;;7.30;99.90;;;;;;4191676;28;20252;-80
2024/03/13 02:15:19;;;;;;;16.33;9.07;;;7.30;99.90;;;;;;4196814;28;20293;-79
2024/03/13 02:17:21;;;;;;;17.80;9.00;;;7.20;99.90;;;;;;4196297;28;20902;-80
2024/03/13 02:19:26;;;;;;;18.27;9.00;;;7.20;99.90;;;;;;4192435;28;20207;-80
2024/03/13 02:21:32;;;;;;;21.67;9.97;;;7.20;99.90;;;;;;4190639;28;20248;-79
2024/03/13 02:23:34;;;;;;;17.37;9.80;;;7.10;99.90;;;;;;4194762;28;20210;-80
2024/03/13 02:25:35;;;;;;;18.23;9.43;;;7.10;99.90;;;;;;4193963;28;20261;-80
2024/03/13 02:27:37;;;;;;;17.40;9.00;;;7.00;99.90;;;;;;4179833;28;20262;-80
2024/03/13 02:29:41;;;;;;;19.63;10.20;;;7.00;99.90;;;;;;4198802;28;20704;-79
2024/03/13 02:31:46;;;;;;;18.27;9.40;;;6.90;99.90;;;;;;4166066;28;20237;-80
2024/03/13 02:33:49;;;;;;;20.40;9.83;;;6.90;99.90;;;;;;4176806;28;20241;-79
2024/03/13 02:35:51;;;;;;;20.67;10.23;;;6.90;99.90;;;;;;4169524;28;20265;-79
2024/03/13 02:37:52;;;;;;;22.10;10.63;;;6.80;99.90;;;;;;4166680;28;20235;-80
2024/03/13 02:39:54;;;;;;;18.90;10.13;;;6.80;99.90;;;;;;4203464;28;20202;-79
2024/03/13 02:41:57;;;;;;;19.83;10.03;;;6.70;99.90;;;;;;4204380;28;20206;-80
2024/03/13 02:43:59;;;;;;;19.50;9.20;;;6.70;99.90;;;;;;4173996;28;20227;-79
2024/03/13 02:46:02;;;;;;;16.53;9.03;;;6.80;99.90;;;;;;4185788;28;20207;-80
2024/03/13 02:48:05;;;;;;;18.07;9.27;;;6.60;99.90;;;;;;4183118;28;20226;-81
2024/03/13 02:50:11;;;;;;;16.63;9.03;;;6.60;99.90;;;;;;4212470;28;20251;-80
2024/03/13 02:52:13;;;;;;;20.63;10.00;;;6.60;99.90;;;;;;4178880;28;20230;-80
2024/03/13 02:54:16;;;;;;;17.13;8.87;;;6.50;99.90;;;;;;4194629;28;20588;-80
2024/03/13 02:56:18;;;;;;;19.00;9.20;;;6.50;99.90;;;;;;4194174;28;20217;-80
2024/03/13 02:58:19;;;;;;;17.77;8.77;;;6.50;99.90;;;;;;4192539;28;20304;-80
2024/03/13 03:00:21;;;;;;;20.37;8.63;;;6.40;99.90;;;;;;4178982;28;20517;-79
2024/03/13 03:02:24;;;;;;;19.70;9.03;;;6.40;99.90;;;;;;4179400;28;20504;-80
2024/03/13 03:04:26;;;;;;;17.00;8.60;;;6.40;99.90;;;;;;4196913;28;20202;-80
2024/03/13 03:06:28;;;;;;;19.63;9.13;;;6.30;99.90;;;;;;4199923;28;20234;-80
2024/03/13 03:08:33;;;;;;;17.80;9.33;;;6.30;99.90;;;;;;4186161;28;20212;-80
2024/03/13 03:10:35;;;;;;;21.47;9.43;;;6.30;99.90;;;;;;4198191;28;20198;-79
2024/03/13 03:12:37;;;;;;;17.23;8.93;;;6.30;99.90;;;;;;4186115;28;20210;-79
2024/03/13 03:14:40;;;;;;;19.50;9.30;;;6.30;99.90;;;;;;4183853;28;20268;-79
2024/03/13 03:16:42;;;;;;;18.37;9.43;;;6.20;99.90;;;;;;4194745;28;20736;-79
2024/03/13 03:18:44;;;;;;;20.57;9.97;;;6.20;99.90;;;;;;4193453;28;20214;-79
2024/03/13 03:20:46;;;;;;;21.07;9.80;;;6.20;99.90;;;;;;4192627;28;20240;-80
2024/03/13 03:22:47;;;;;;;21.67;9.70;;;6.20;99.90;;;;;;4163365;28;20215;-80
2024/03/13 03:24:49;;;;;;;21.13;9.90;;;6.30;99.90;;;;;;4191407;28;20250;-79
2024/03/13 03:26:51;;;;;;;17.37;8.60;;;6.30;99.90;;;;;;4176052;28;20231;-80
2024/03/13 03:28:53;;;;;;;18.10;9.23;;;6.30;99.90;;;;;;4192710;28;20460;-79
2024/03/13 03:30:56;;;;;;;15.27;8.10;;;6.30;99.90;;;;;;4193815;28;20234;-79
2024/03/13 03:33:00;;;;;;;17.97;9.23;;;6.40;99.90;;;;;;4175094;28;20215;-79
2024/03/13 03:35:03;;;;;;;19.83;9.37;;;6.30;99.90;;;;;;4178820;28;20230;-79
2024/03/13 03:37:05;;;;;;;16.20;8.70;;;6.40;99.90;;;;;;4193012;28;20230;-80
2024/03/13 03:39:10;;;;;;;17.33;8.30;;;6.40;99.90;;;;;;4192433;28;20194;-80
2024/03/13 03:41:12;;;;;;;22.63;10.20;;;6.40;99.90;;;;;;4165605;28;20204;-79
2024/03/13 03:43:14;;;;;;;24.33;10.93;;;6.50;99.90;;;;;;4182085;28;20256;-78
2024/03/13 03:45:16;;;;;;;19.20;9.77;;;6.50;99.90;;;;;;4177548;28;20215;-81
2024/03/13 03:47:18;;;;;;;20.23;9.47;;;6.50;99.90;;;;;;4180687;28;20253;-80
2024/03/13 03:49:22;;;;;;;19.67;9.33;;;6.50;99.90;;;;;;4180353;28;20544;-81
2024/03/13 03:51:24;;;;;;;20.50;10.03;;;6.50;99.90;;;;;;4196941;28;20757;-80
2024/03/13 03:53:27;;;;;;;19.37;9.97;;;6.50;99.90;;;;;;4196848;28;21224;-81
2024/03/13 03:55:29;;;;;;;19.30;9.53;;;6.50;99.90;;;;;;4176631;28;20269;-81
2024/03/13 03:57:32;;;;;;;18.90;9.20;;;6.50;99.90;;;;;;4178686;28;20920;-81
2024/03/13 03:59:34;;;;;;;16.90;8.70;;;6.50;99.90;;;;;;4179685;28;20216;-81
2024/03/13 04:01:37;;;;;;;20.27;9.73;;;6.50;99.90;;;;;;4163719;28;20227;-80
2024/03/13 04:03:41;;;;;;;19.80;10.07;;;6.50;99.90;;;;;;4196345;28;20903;-78
2024/03/13 04:05:43;;;;;;;19.93;9.73;;;6.50;99.90;;;;;;4189974;28;20718;-78
2024/03/13 04:07:44;;;;;;;23.20;10.57;;;6.50;99.90;;;;;;4188527;28;20842;-78
2024/03/13 04:09:47;;;;;;;21.67;10.40;;;6.40;99.90;;;;;;4193761;28;20624;-83
2024/03/13 04:11:48;;;;;;;23.37;10.53;;;6.40;99.90;;;;;;4180798;28;20213;-79
2024/03/13 04:13:50;;;;;;;29.93;11.83;;;6.40;99.90;;;;;;4180171;28;20221;-79
2024/03/13 04:15:53;;;;;;;22.93;10.20;;;6.40;99.90;;;;;;4181561;28;20817;-80
2024/03/13 04:17:55;;;;;;;23.53;11.47;;;6.40;99.90;;;;;;4165658;28;20319;-80
2024/03/13 04:19:58;;;;;;;22.17;11.27;;;6.40;99.90;;;;;;4177936;28;20204;-81
2024/03/13 04:22:00;;;;;;;24.27;11.00;;;6.40;99.90;;;;;;4180723;28;20481;-80
2024/03/13 04:24:02;;;;;;;25.73;10.93;;;6.40;99.90;;;;;;4180626;28;20670;-79
2024/03/13 04:26:04;;;;;;;20.70;10.40;;;6.40;99.90;;;;;;4176134;28;20198;-79
2024/03/13 04:28:07;;;;;;;22.50;10.83;;;6.30;99.90;;;;;;4178368;28;20261;-79
2024/03/13 04:30:09;;;;;;;24.73;10.40;;;6.30;99.90;;;;;;4160336;28;20237;-79
2024/03/13 04:32:11;;;;;;;20.47;10.60;;;6.30;99.90;;;;;;4158850;28;20507;-78
2024/03/13 04:34:13;;;;;;;21.03;10.60;;;6.60;99.90;;;;;;4193335;28;20217;-79
2024/03/13 04:36:15;;;;;;;22.83;10.40;;;6.30;99.90;;;;;;4178586;28;20206;-79
2024/03/13 04:38:18;;;;;;;23.27;10.53;;;6.40;99.90;;;;;;4176020;28;20685;-80
2024/03/13 04:40:22;;;;;;;25.57;11.03;;;6.20;99.90;;;;;;4167582;28;20239;-80
2024/03/13 04:42:24;;;;;;;27.63;10.43;;;6.30;99.90;;;;;;4197324;28;20218;-81
2024/03/13 04:44:28;;;;;;;23.70;10.93;;;6.30;99.90;;;;;;4197802;28;20202;-81
2024/03/13 04:46:30;;;;;;;22.27;9.80;;;6.60;99.90;;;;;;4199578;28;20229;-82
2024/03/13 04:48:32;;;;;;;24.13;10.73;;;6.10;99.90;;;;;;4181366;28;20223;-82
2024/03/13 04:50:34;;;;;;;23.60;10.57;;;6.10;99.90;;;;;;4177507;28;20450;-82
2024/03/13 04:52:36;;;;;;;22.50;11.27;;;6.10;99.90;;;;;;4184502;28;20202;-82
2024/03/13 04:54:37;;;;;;;21.77;10.67;;;6.10;99.90;;;;;;4199012;28;20237;-83
2024/03/13 04:56:39;;;;;;;21.70;10.37;;;6.00;99.90;;;;;;4200417;28;20210;-82
2024/03/13 04:58:40;;;;;;;24.30;9.37;;;5.90;99.90;;;;;;4201150;28;20203;-81
2024/03/13 05:00:42;;;;;;;24.03;10.77;;;5.90;99.90;;;;;;4215121;28;20427;-84
2024/03/13 05:02:44;;;;;;;20.80;10.10;;;6.40;99.90;;;;;;4185013;28;20206;-81
2024/03/13 05:04:46;;;;;;;22.07;10.37;;;5.80;99.90;;;;;;4206591;28;20208;-81
2024/03/13 05:06:48;;;;;;;19.00;9.67;;;5.80;99.90;;;;;;4186551;28;20564;-80
2024/03/13 05:08:50;;;;;;;25.10;10.07;;;5.70;99.90;;;;;;4200604;28;21041;-83
2024/03/13 05:10:53;;;;;;;20.17;9.87;;;5.70;99.90;;;;;;4185828;28;20472;-80
2024/03/13 05:12:55;;;;;;;19.80;9.77;;;5.70;99.90;;;;;;4195408;28;20243;-82
2024/03/13 05:14:57;;;;;;;23.17;11.23;;;5.60;99.90;;;;;;4183338;28;20464;-80
2024/03/13 05:16:59;;;;;;;24.27;10.10;;;5.60;99.90;;;;;;4187511;28;21525;-82
2024/03/13 05:19:04;;;;;;;23.67;9.90;;;6.10;99.90;;;;;;4181588;28;20199;-83
2024/03/13 05:21:06;;;;;;;22.27;10.47;;;5.60;99.90;;;;;;4202907;28;20445;-83
2024/03/13 05:23:08;;;;;;;22.37;10.47;;;5.70;99.90;;;;;;4187189;28;20433;-81
2024/03/13 05:25:14;;;;;;;27.07;10.37;;;5.40;99.90;;;;;;4182722;28;20455;-84
2024/03/13 05:27:16;;;;;;;22.10;9.77;;;6.00;99.90;;;;;;4186157;28;20461;-82
2024/03/13 05:29:18;;;;;;;21.80;11.13;;;5.50;99.90;;;;;;4202129;28;20513;-82
2024/03/13 05:31:21;;;;;;;22.93;10.10;;;5.40;99.90;;;;;;4187596;28;20453;-86
2024/03/13 05:33:24;;;;;;;19.33;10.50;;;5.40;99.90;;;;;;4206793;28;20423;-85
2024/03/13 05:35:26;;;;;;;26.23;11.87;;;5.90;99.90;;;;;;4174540;28;20980;-80
2024/03/13 05:37:27;;;;;;;23.57;11.80;;;5.40;99.90;;;;;;4201095;28;20513;-84
2024/03/13 05:39:29;;;;;;;22.63;10.10;;;5.50;99.90;;;;;;4187775;28;20449;-83
2024/03/13 05:41:34;;;;;;;25.73;11.27;;;5.40;99.90;;;;;;4186352;28;20436;-81
2024/03/13 05:43:36;;;;;;;21.57;11.20;;;5.70;99.90;;;;;;4184387;28;20497;-82
2024/03/13 05:45:39;;;;;;;23.87;11.53;;;5.30;99.90;;;;;;4183209;28;20469;-81
2024/03/13 05:47:41;;;;;;;21.97;10.67;;;5.30;99.90;;;;;;4169545;28;20688;-83
2024/03/13 05:49:43;;;;;;;24.23;11.03;;;5.70;99.90;;;;;;4185636;28;20521;-81
2024/03/13 05:51:45;;;;;;;24.73;11.27;;;5.30;99.90;;;;;;4180901;28;20552;-84
2024/03/13 05:53:46;;;;;;;24.47;10.77;;;5.30;99.90;;;;;;4177714;28;20459;-81
2024/03/13 05:55:49;;;;;;;21.40;11.03;;;5.50;99.90;;;;;;4170913;28;20460;-80
2024/03/13 05:57:50;;;;;;;23.47;10.90;;;5.50;99.90;;;;;;4166200;28;20501;-81
2024/03/13 05:59:52;;;;;;;19.70;10.27;;;5.30;99.90;;;;;;4168115;28;20450;-81
2024/03/13 06:01:55;;;;;;;28.80;11.77;;;5.20;99.90;;;;;;4193382;28;20459;-80
2024/03/13 06:03:58;;;;;;;25.00;11.00;;;5.20;99.90;;;;;;4178583;28;20482;-79
2024/03/13 06:06:00;;;;;;;25.97;11.50;;;5.20;99.90;;;;;;4158378;28;20539;-81
2024/03/13 06:08:01;;;;;;;22.53;10.97;;;5.20;99.90;;;;;;4174275;28;20481;-81
2024/03/13 06:10:05;;;;;;;23.27;10.47;;;5.20;99.90;;;;;;4160623;28;20465;-81
2024/03/13 06:12:06;;;;;;;25.17;11.53;;;5.20;99.90;;;;;;4159578;28;20492;-81
2024/03/13 06:14:08;;;;;;;26.63;11.83;;;5.20;99.90;;;;;;4188386;28;20502;-81
2024/03/13 06:16:10;;;;;;;23.20;10.77;;;5.20;99.90;;;;;;4158828;28;20468;-80
2024/03/13 06:18:13;;;;;;;31.60;12.23;;;5.20;99.90;;;;;;4190599;28;20579;-80
2024/03/13 06:20:17;;;;;;;25.23;11.80;;;5.20;99.90;;;;;;4177051;28;20449;-84
2024/03/13 06:22:19;;;;;;;25.73;12.07;;;5.20;99.90;;;;;;4179007;28;20447;-80
2024/03/13 06:24:30;;;;;;;29.37;12.87;;;5.80;99.90;;;;;;4189614;28;20463;-79
2024/03/13 06:26:33;;;;;;;27.70;12.40;;;5.30;99.90;;;;;;4172980;28;20528;-83
2024/03/13 06:30:58;;;;;;;26.50;11.80;;;5.30;99.90;;;;;;4171566;28;20442;-81
2024/03/13 06:33:00;;;;;;;26.27;11.33;;;5.20;99.90;;;;;;4195511;28;20455;-80
2024/03/13 06:35:04;;;;;;;25.90;12.47;;;5.30;99.90;;;;;;4158883;28;20534;-81
2024/03/13 06:37:07;;;;;;;32.83;13.87;;;5.30;99.90;;;;;;4174050;28;20475;-80
2024/03/13 06:39:10;;;;;;;28.70;12.53;;;5.30;99.90;;;;;;4197984;28;20520;-80
2024/03/13 06:41:12;;;;;;;29.50;13.53;;;5.30;99.90;;;;;;4181490;28;20460;-81
2024/03/13 06:43:14;;;;;;;30.87;13.23;;;5.30;99.90;;;;;;4160784;28;20496;-80
2024/03/13 06:45:17;;;;;;;29.47;14.20;;;5.30;99.90;;;;;;4190902;28;20550;-79
2024/03/13 06:47:20;;;;;;;30.07;13.10;;;5.30;99.90;;;;;;4176995;28;20471;-79
2024/03/13 06:49:22;;;;;;;31.70;14.43;;;5.40;99.90;;;;;;4188824;28;20463;-78
2024/03/13 06:51:24;;;;;;;32.70;14.30;;;5.40;99.90;;;;;;4164895;28;20441;-80
2024/03/13 06:53:26;;;;;;;29.27;14.10;;;5.50;99.90;;;;;;4192395;28;20487;-80
2024/03/13 06:55:28;;;;;;;31.90;14.93;;;5.50;99.90;;;;;;4185212;28;20459;-80
2024/03/13 06:57:31;;;;;;;34.73;14.13;;;5.50;99.90;;;;;;4173118;28;20501;-80
2024/03/13 06:59:34;;;;;;;37.33;14.40;;;5.50;99.90;;;;;;4171816;28;20437;-80
2024/03/13 07:01:36;;;;;;;31.37;13.90;;;5.60;99.90;;;;;;4174813;28;21057;-79
2024/03/13 07:03:37;;;;;;;34.53;14.90;;;5.60;99.90;;;;;;4159391;28;20477;-80
2024/03/13 07:05:40;;;;;;;34.57;15.27;;;5.60;99.90;;;;;;4173408;28;20885;-79
2024/03/13 07:07:44;;;;;;;36.00;15.63;;;5.70;99.90;;;;;;4190940;28;20456;-79
2024/03/13 07:09:48;;;;;;;32.63;15.00;;;5.70;99.90;;;;;;4158837;28;20453;-79
2024/03/13 07:11:50;;;;;;;34.80;15.37;;;5.70;99.90;;;;;;4196106;28;20503;-79
2024/03/13 07:13:52;;;;;;;34.83;15.17;;;5.80;99.90;;;;;;4184038;28;20464;-79
2024/03/13 07:15:55;;;;;;;34.43;13.70;;;5.80;99.90;;;;;;4185337;28;20449;-79
2024/03/13 07:17:57;;;;;;;35.17;15.37;;;5.80;99.90;;;;;;4202477;28;20482;-80
2024/03/13 07:20:00;;;;;;;41.20;16.90;;;5.90;99.90;;;;;;4191636;28;20451;-80
2024/03/13 07:22:02;;;;;;;37.03;15.93;;;5.90;99.90;;;;;;4186808;28;20446;-79
2024/03/13 07:24:04;;;;;;;38.23;15.97;;;6.00;99.90;;;;;;4181450;28;20210;-80
2024/03/13 07:26:08;;;;;;;39.13;16.87;;;6.00;99.90;;;;;;4177660;28;20457;-80
2024/03/13 07:28:11;;;;;;;37.00;15.93;;;6.00;99.90;;;;;;4165827;28;20977;-80
2024/03/13 07:30:14;;;;;;;38.83;16.27;;;6.10;99.90;;;;;;4164837;28;20529;-80
2024/03/13 07:32:16;;;;;;;34.97;15.73;;;6.10;99.90;;;;;;4164455;28;20532;-80
2024/03/13 07:34:18;;;;;;;40.07;16.33;;;6.20;99.90;;;;;;4175806;28;20554;-80
2024/03/13 07:36:21;;;;;;;38.90;15.80;;;6.20;99.90;;;;;;4173447;28;20531;-80
2024/03/13 07:38:23;;;;;;;37.43;15.37;;;6.30;99.90;;;;;;4178939;28;20547;-80
2024/03/13 07:40:26;;;;;;;37.33;15.53;;;6.30;99.90;;;;;;4162125;28;20484;-81
2024/03/13 07:42:28;;;;;;;38.37;16.03;;;6.30;99.90;;;;;;4159659;28;20493;-80
2024/03/13 07:44:30;;;;;;;38.47;16.37;;;6.40;99.90;;;;;;4195065;28;20445;-80
2024/03/13 07:46:31;;;;;;;37.87;15.40;;;6.40;99.90;;;;;;4194003;28;20920;-80
2024/03/13 07:48:33;;;;;;;37.07;15.67;;;6.50;99.90;;;;;;4196875;28;20257;-80
2024/03/13 07:50:36;;;;;;;40.40;16.53;;;6.50;99.90;;;;;;4165945;28;20516;-80
2024/03/13 07:52:37;;;;;;;36.27;16.77;;;6.50;99.90;;;;;;4198662;28;20231;-80
2024/03/13 07:54:39;;;;;;;36.50;16.17;;;6.60;99.90;;;;;;4182167;28;20449;-80
2024/03/13 07:56:40;;;;;;;36.87;17.27;;;6.60;99.90;;;;;;4195354;28;20210;-79
2024/03/13 07:58:42;;;;;;;38.73;16.47;;;6.70;99.90;;;;;;4163069;28;20659;-80
2024/03/13 08:00:49;;;;;;;38.90;16.40;;;6.70;99.90;;;;;;4196037;28;20267;-80
2024/03/13 08:02:54;;;;;;;37.27;15.87;;;7.00;99.90;;;;;;4164205;28;20203;-80
2024/03/13 08:04:58;;;;;;;39.93;17.23;;;6.80;99.90;;;;;;4180357;28;20199;-79
2024/03/13 08:07:01;;;;;;;38.93;15.97;;;6.90;99.90;;;;;;4168920;28;20294;-81
2024/03/13 08:09:05;;;;;;;38.17;16.80;;;7.30;99.90;;;;;;4182868;28;20205;-78
2024/03/13 08:11:08;;;;;;;39.10;17.43;;;7.00;99.90;;;;;;4198215;28;20588;-79
2024/03/13 08:13:10;;;;;;;36.30;15.90;;;7.30;99.90;;;;;;4167296;28;20654;-78
2024/03/13 08:15:13;;;;;;;38.33;15.23;;;7.10;99.90;;;;;;4177662;28;20275;-78
2024/03/13 08:17:15;;;;;;;33.60;15.20;;;7.10;99.90;;;;;;4191127;28;20221;-79
2024/03/13 08:19:17;;;;;;;37.97;16.73;;;7.20;99.90;;;;;;4174572;28;20211;-78
2024/03/13 08:21:20;;;;;;;35.13;16.23;;;7.20;99.90;;;;;;4176850;28;20625;-78
2024/03/13 08:23:22;;;;;;;37.20;16.73;;;7.30;99.90;;;;;;4175698;28;20204;-79
2024/03/13 08:25:25;;;;;;;36.57;16.77;;;7.30;99.90;;;;;;4174262;28;20719;-78
2024/03/13 08:27:27;;;;;;;34.37;15.80;;;7.30;99.90;;;;;;4194205;28;20770;-74
2024/03/13 08:29:30;;;;;;;38.17;16.60;;;7.40;99.90;;;;;;4154390;28;20210;-78
2024/03/13 08:31:39;;;;;;;38.60;17.93;;;7.40;99.90;;;;;;4191975;28;20717;-78
2024/03/13 08:33:42;;;;;;;43.63;16.73;;;7.60;99.90;;;;;;4175652;28;20741;-78
2024/03/13 08:35:44;;;;;;;39.87;16.77;;;7.60;99.90;;;;;;4176863;28;20219;-77
2024/03/13 08:37:47;;;;;;;42.03;17.47;;;7.20;99.90;;;;;;4173744;28;20751;-78
2024/03/13 08:39:49;;;;;;;40.10;16.40;;;8.10;99.90;;;;;;4188118;28;20620;-78
2024/03/13 08:41:51;;;;;;;36.27;16.10;;;7.80;99.90;;;;;;4189701;28;20212;-77
2024/03/13 08:43:53;;;;;;;38.33;16.57;;;7.90;99.90;;;;;;4171195;28;20211;-77
2024/03/13 08:45:54;;;;;;;40.20;17.00;;;7.90;99.90;;;;;;4158403;28;20218;-77
2024/03/13 08:47:56;;;;;;;39.63;18.00;;;8.00;99.90;;;;;;4176201;28;20220;-77
2024/03/13 08:49:58;;;;;;;37.13;17.30;;;8.10;99.90;;;;;;4173544;28;20212;-78
2024/03/13 08:52:00;;;;;;;43.90;17.20;;;8.10;99.90;;;;;;4176449;28;20274;-79
2024/03/13 08:54:05;;;;;;;44.10;18.80;;;8.20;99.90;;;;;;4194095;28;20242;-79
2024/03/13 08:56:08;;;;;;;42.70;18.47;;;8.20;99.90;;;;;;4177894;28;20259;-79
2024/03/13 08:58:10;;;;;;;47.67;18.40;;;8.40;99.90;;;;;;4173296;28;20229;-79
2024/03/13 09:00:11;;;;;;;41.37;18.33;;;8.30;99.90;;;;;;4194228;28;20644;-79
2024/03/13 09:02:13;;;;;;;40.73;17.63;;;8.40;99.90;;;;;;4170267;28;20602;-79
2024/03/13 09:04:17;;;;;;;38.00;16.87;;;8.40;99.90;;;;;;4176169;28;20208;-79
2024/03/13 09:06:19;;;;;;;35.13;16.70;;;8.50;99.90;;;;;;4172733;28;20241;-79
2024/03/13 09:08:22;;;;;;;41.93;18.53;;;8.80;99.90;;;;;;4190709;28;20219;-80
2024/03/13 09:10:24;;;;;;;42.20;18.27;;;8.60;99.90;;;;;;4177968;28;20212;-81
2024/03/13 09:12:26;;;;;;;41.63;18.03;;;8.70;99.90;;;;;;4171223;28;20216;-79
2024/03/13 09:14:28;;;;;;;40.53;16.93;;;8.70;99.90;;;;;;4189735;28;22085;-79
2024/03/13 09:16:31;;;;;;;41.37;18.43;;;8.70;99.90;;;;;;4176792;28;20310;-79
2024/03/13 09:18:35;;;;;;;44.17;18.33;;;8.80;99.90;;;;;;4162465;28;20234;-80
2024/03/13 09:20:37;;;;;;;44.70;17.73;;;8.80;99.90;;;;;;4158567;28;20221;-81
2024/03/13 09:22:39;;;;;;;39.50;16.77;;;8.90;99.90;;;;;;4190540;28;20238;-81
2024/03/13 09:24:43;;;;;;;39.07;18.07;;;8.90;99.90;;;;;;4172805;28;20210;-80
2024/03/13 09:26:45;;;;;;;34.90;16.33;;;9.00;99.90;;;;;;4173040;28;20221;-79
2024/03/13 09:28:47;;;;;;;37.40;16.47;;;9.00;99.90;;;;;;4196060;28;20710;-79
2024/03/13 09:30:49;;;;;;;38.73;17.90;;;9.10;99.90;;;;;;4186918;28;20207;-80
2024/03/13 09:32:51;;;;;;;39.30;18.07;;;9.10;99.90;;;;;;4171754;28;20286;-80
2024/03/13 09:34:52;;;;;;;35.20;16.37;;;9.20;99.90;;;;;;4199059;28;20244;-80
2024/03/13 09:36:54;;;;;;;41.17;17.63;;;9.30;99.90;;;;;;4198340;28;20236;-79
2024/03/13 09:38:56;;;;;;;39.20;16.63;;;9.30;99.90;;;;;;4176763;28;20259;-80
2024/03/13 09:40:58;;;;;;;40.43;17.80;;;9.30;99.90;;;;;;4174468;28;20261;-79
2024/03/13 09:43:00;;;;;;;42.07;20.50;;;9.30;99.90;;;;;;4192103;28;20220;-77
2024/03/13 09:45:03;;;;;;;38.10;17.53;;;9.50;99.90;;;;;;4177159;28;20237;-81
2024/03/13 09:47:05;;;;;;;36.57;16.47;;;9.50;99.90;;;;;;4175589;28;20227;-80
2024/03/13 09:49:07;;;;;;;40.60;17.00;;;9.50;99.90;;;;;;4190029;28;20217;-80
2024/03/13 09:51:09;;;;;;;36.27;15.93;;;9.60;99.90;;;;;;4157720;28;20261;-80
2024/03/13 09:53:11;;;;;;;42.10;17.70;;;9.80;99.90;;;;;;4178569;28;20206;-80
2024/03/13 09:55:15;;;;;;;36.53;16.67;;;9.90;99.90;;;;;;4176657;28;20203;-80
2024/03/13 09:57:17;;;;;;;38.10;15.33;;;10.00;99.90;;;;;;4192129;28;20298;-81
2024/03/13 09:59:19;;;;;;;33.43;16.00;;;10.10;99.90;;;;;;4188465;28;20224;-81
2024/03/13 10:01:20;;;;;;;35.77;16.10;;;10.20;99.90;;;;;;4161186;28;20256;-81
2024/03/13 10:03:23;;;;;;;33.87;15.93;;;10.30;99.90;;;;;;4174828;28;20209;-80
2024/03/13 10:05:25;;;;;;;32.57;15.20;;;10.40;99.90;;;;;;4172049;28;20202;-80
2024/03/13 10:07:28;;;;;;;34.03;15.90;;;10.60;99.90;;;;;;4178462;28;20226;-80
2024/03/13 10:09:34;;;;;;;29.67;14.23;;;10.70;99.90;;;;;;4193650;28;20217;-80
2024/03/13 10:11:36;;;;;;;31.27;14.97;;;10.90;99.90;;;;;;4177797;28;20237;-79
2024/03/13 10:13:39;;;;;;;30.33;14.57;;;11.10;99.90;;;;;;4181184;28;20278;-80
2024/03/13 10:15:41;;;;;;;31.07;14.37;;;11.30;99.90;;;;;;4168894;28;20310;-80
2024/03/13 10:17:43;;;;;;;30.10;13.97;;;11.40;99.90;;;;;;4194109;28;20235;-80
2024/03/13 10:19:46;;;;;;;30.10;14.43;;;11.60;99.90;;;;;;4187773;28;20666;-80
2024/03/13 10:21:49;;;;;;;30.87;14.17;;;11.60;99.90;;;;;;4179304;28;20221;-80
2024/03/13 10:23:51;;;;;;;22.07;11.13;;;11.70;99.90;;;;;;4192980;28;20236;-80
2024/03/13 10:25:54;;;;;;;22.13;11.53;;;11.70;99.90;;;;;;4158708;28;20819;-80
2024/03/13 10:27:56;;;;;;;23.40;11.03;;;11.70;99.90;;;;;;4173870;28;20227;-79
2024/03/13 10:29:58;;;;;;;22.57;10.97;;;11.70;99.90;;;;;;4175704;28;20257;-82
2024/03/13 10:32:03;;;;;;;22.27;11.07;;;11.80;99.90;;;;;;4172768;28;20257;-79
2024/03/13 10:34:07;;;;;;;23.13;11.07;;;11.80;99.90;;;;;;4175424;28;20211;-79
2024/03/13 10:36:11;;;;;;;21.30;11.00;;;11.90;99.90;;;;;;4177211;28;20235;-80
2024/03/13 10:38:14;;;;;;;21.13;10.67;;;11.60;99.90;;;;;;4178793;28;20241;-79
2024/03/13 10:40:16;;;;;;;22.07;11.00;;;11.60;99.90;;;;;;4179232;28;21652;-80
2024/03/13 10:42:21;;;;;;;19.70;9.00;;;11.60;99.90;;;;;;4189375;28;20202;-79
2024/03/13 10:44:24;;;;;;;16.57;8.50;;;11.60;99.90;;;;;;4176342;28;20203;-79
2024/03/13 10:46:25;;;;;;;14.27;7.30;;;11.70;99.90;;;;;;4176625;28;20207;-80
2024/03/13 10:48:27;;;;;;;12.87;6.80;;;11.80;99.90;;;;;;4196169;28;20231;-80
2024/03/13 10:50:30;;;;;;;17.03;8.17;;;11.90;99.90;;;;;;4179912;28;20222;-80
2024/03/13 10:52:31;;;;;;;20.77;9.93;;;11.90;99.90;;;;;;4162535;28;20306;-80